sensor_id;sensor_type;location;lat;lon;timestamp;pressure;altitude;pressure_sealevel;temperature;humidity
57791;BME280;43621;51.798;21.588;2023-04-28T00:03:58;100407.78;;;3.93;51.73
57791;BME280;43621;51.798;21.588;2023-04-28T00:08:00;100406.11;;;3.89;51.85
57791;BME280;43621;51.798;21.588;2023-04-28T00:12:04;100406.92;;;3.83;51.90
57791;BME280;43621;51.798;21.588;2023-04-28T00:16:05;100410.30;;;3.79;51.96
57791;BME280;43621;51.798;21.588;2023-04-28T00:20:07;100406.67;;;3.70;52.02
57791;BME280;43621;51.798;21.588;2023-04-28T00:24:09;100408.48;;;3.56;52.16
57791;BME280;43621;51.798;21.588;2023-04-28T00:28:10;100412.65;;;3.43;52.36
57791;BME280;43621;51.798;21.588;2023-04-28T00:32:11;100414.36;;;3.37;52.65
57791;BME280;43621;51.798;21.588;2023-04-28T00:36:13;100410.65;;;3.36;52.94
57791;BME280;43621;51.798;21.588;2023-04-28T00:40:14;100410.83;;;3.36;52.98
57791;BME280;43621;51.798;21.588;2023-04-28T00:44:16;100411.47;;;3.33;53.03
57791;BME280;43621;51.798;21.588;2023-04-28T00:48:17;100415.93;;;3.31;53.15
57791;BME280;43621;51.798;21.588;2023-04-28T00:52:19;100416.60;;;3.28;53.31
57791;BME280;43621;51.798;21.588;2023-04-28T00:56:20;100414.77;;;3.24;53.38
57791;BME280;43621;51.798;21.588;2023-04-28T01:00:21;100415.65;;;3.20;53.43
57791;BME280;43621;51.798;21.588;2023-04-28T01:04:24;100417.59;;;3.16;53.49
57791;BME280;43621;51.798;21.588;2023-04-28T01:08:29;100420.65;;;3.11;53.45
57791;BME280;43621;51.798;21.588;2023-04-28T01:12:30;100423.25;;;3.07;53.66
57791;BME280;43621;51.798;21.588;2023-04-28T01:16:32;100431.20;;;3.10;53.85
57791;BME280;43621;51.798;21.588;2023-04-28T01:20:35;100430.69;;;3.13;53.87
57791;BME280;43621;51.798;21.588;2023-04-28T01:24:36;100427.26;;;3.13;53.68
57791;BME280;43621;51.798;21.588;2023-04-28T01:28:37;100431.13;;;3.05;53.50
57791;BME280;43621;51.798;21.588;2023-04-28T01:32:38;100428.33;;;2.96;53.67
57791;BME280;43621;51.798;21.588;2023-04-28T01:36:39;100426.52;;;2.91;53.83
57791;BME280;43621;51.798;21.588;2023-04-28T01:40:40;100432.58;;;2.84;53.94
57791;BME280;43621;51.798;21.588;2023-04-28T01:44:42;100431.60;;;2.83;54.17
57791;BME280;43621;51.798;21.588;2023-04-28T01:48:43;100431.52;;;2.81;54.11
57791;BME280;43621;51.798;21.588;2023-04-28T01:52:44;100434.86;;;2.80;54.33
57791;BME280;43621;51.798;21.588;2023-04-28T01:56:45;100438.51;;;2.76;54.37
57791;BME280;43621;51.798;21.588;2023-04-28T02:00:46;100437.17;;;2.72;54.30
57791;BME280;43621;51.798;21.588;2023-04-28T02:04:48;100437.73;;;2.68;54.30
57791;BME280;43621;51.798;21.588;2023-04-28T02:08:49;100437.90;;;2.61;54.25
57791;BME280;43621;51.798;21.588;2023-04-28T02:12:50;100441.23;;;2.56;54.34
57791;BME280;43621;51.798;21.588;2023-04-28T02:16:51;100439.86;;;2.49;54.38
57791;BME280;43621;51.798;21.588;2023-04-28T02:20:52;100440.86;;;2.40;54.36
57791;BME280;43621;51.798;21.588;2023-04-28T02:24:53;100440.94;;;2.38;54.63
57791;BME280;43621;51.798;21.588;2023-04-28T02:28:54;100443.22;;;2.34;54.63
57791;BME280;43621;51.798;21.588;2023-04-28T02:32:55;100439.55;;;2.29;54.70
57791;BME280;43621;51.798;21.588;2023-04-28T02:36:56;100438.34;;;2.25;54.75
57791;BME280;43621;51.798;21.588;2023-04-28T02:45:00;100433.91;;;2.06;54.72
57791;BME280;43621;51.798;21.588;2023-04-28T02:49:01;100436.36;;;2.02;54.94
57791;BME280;43621;51.798;21.588;2023-04-28T02:53:02;100437.80;;;2.01;55.01
57791;BME280;43621;51.798;21.588;2023-04-28T02:57:03;100439.74;;;2.00;55.06
57791;BME280;43621;51.798;21.588;2023-04-28T03:01:07;100438.10;;;1.98;55.05
57791;BME280;43621;51.798;21.588;2023-04-28T03:05:08;100440.98;;;1.99;55.17
57791;BME280;43621;51.798;21.588;2023-04-28T03:09:10;100443.36;;;2.00;55.18
57791;BME280;43621;51.798;21.588;2023-04-28T03:13:12;100444.61;;;1.95;54.97
57791;BME280;43621;51.798;21.588;2023-04-28T03:17:13;100444.49;;;1.91;55.02
57791;BME280;43621;51.798;21.588;2023-04-28T03:21:14;100446.63;;;1.89;55.12
57791;BME280;43621;51.798;21.588;2023-04-28T03:25:15;100449.80;;;1.92;55.41
57791;BME280;43621;51.798;21.588;2023-04-28T03:29:17;100451.20;;;1.98;55.72
57791;BME280;43621;51.798;21.588;2023-04-28T03:33:18;100453.58;;;2.02;55.73
57791;BME280;43621;51.798;21.588;2023-04-28T03:37:19;100455.06;;;2.07;55.66
57791;BME280;43621;51.798;21.588;2023-04-28T03:41:20;100451.44;;;2.18;55.86
57791;BME280;43621;51.798;21.588;2023-04-28T03:45:22;100456.36;;;2.30;55.93
57791;BME280;43621;51.798;21.588;2023-04-28T03:49:23;100456.19;;;2.40;55.92
57791;BME280;43621;51.798;21.588;2023-04-28T03:53:24;100459.09;;;2.51;55.98
57791;BME280;43621;51.798;21.588;2023-04-28T03:57:25;100463.07;;;2.61;55.75
57791;BME280;43621;51.798;21.588;2023-04-28T04:01:26;100464.94;;;2.65;55.54
57791;BME280;43621;51.798;21.588;2023-04-28T04:05:27;100466.09;;;2.70;55.58
57791;BME280;43621;51.798;21.588;2023-04-28T04:09:28;100466.65;;;2.72;55.53
57791;BME280;43621;51.798;21.588;2023-04-28T04:13:30;100470.30;;;2.78;55.55
57791;BME280;43621;51.798;21.588;2023-04-28T04:17:31;100473.23;;;2.81;55.71
57791;BME280;43621;51.798;21.588;2023-04-28T04:21:32;100474.80;;;2.91;55.79
57791;BME280;43621;51.798;21.588;2023-04-28T04:25:33;100474.95;;;3.02;55.90
57791;BME280;43621;51.798;21.588;2023-04-28T04:29:34;100478.28;;;3.00;55.93
57791;BME280;43621;51.798;21.588;2023-04-28T04:33:36;100481.73;;;3.03;55.92
57791;BME280;43621;51.798;21.588;2023-04-28T04:37:37;100485.94;;;3.22;56.23
57791;BME280;43621;51.798;21.588;2023-04-28T04:41:39;100486.36;;;3.43;56.28
57791;BME280;43621;51.798;21.588;2023-04-28T04:45:41;100484.92;;;3.72;56.46
57791;BME280;43621;51.798;21.588;2023-04-28T04:49:42;100480.77;;;4.04;56.44
57791;BME280;43621;51.798;21.588;2023-04-28T04:53:44;100481.02;;;4.30;56.46
57791;BME280;43621;51.798;21.588;2023-04-28T04:57:45;100482.23;;;4.51;56.41
57791;BME280;43621;51.798;21.588;2023-04-28T05:01:46;100481.91;;;4.70;56.37
57791;BME280;43621;51.798;21.588;2023-04-28T05:05:47;100477.09;;;4.85;56.34
57791;BME280;43621;51.798;21.588;2023-04-28T05:09:49;100475.92;;;4.98;56.37
57791;BME280;43621;51.798;21.588;2023-04-28T05:13:50;100474.51;;;5.10;56.46
57791;BME280;43621;51.798;21.588;2023-04-28T05:17:51;100476.17;;;5.25;56.54
57791;BME280;43621;51.798;21.588;2023-04-28T05:21:52;100482.94;;;5.53;56.35
57791;BME280;43621;51.798;21.588;2023-04-28T05:25:54;100483.27;;;5.92;56.91
57791;BME280;43621;51.798;21.588;2023-04-28T05:29:55;100487.52;;;6.26;56.29
57791;BME280;43621;51.798;21.588;2023-04-28T05:33:57;100487.07;;;6.74;56.10
57791;BME280;43621;51.798;21.588;2023-04-28T05:37:58;100488.21;;;7.45;55.73
57791;BME280;43621;51.798;21.588;2023-04-28T05:41:59;100483.55;;;8.13;54.92
57791;BME280;43621;51.798;21.588;2023-04-28T05:46:01;100487.36;;;8.83;54.38
57791;BME280;43621;51.798;21.588;2023-04-28T05:50:02;100488.38;;;9.55;53.89
57791;BME280;43621;51.798;21.588;2023-04-28T05:54:03;100485.64;;;10.47;53.34
57791;BME280;43621;51.798;21.588;2023-04-28T05:58:04;100489.95;;;11.58;53.09
57791;BME280;43621;51.798;21.588;2023-04-28T06:02:05;100483.66;;;13.40;53.61
57791;BME280;43621;51.798;21.588;2023-04-28T06:06:08;100482.27;;;17.60;51.68
57791;BME280;43621;51.798;21.588;2023-04-28T06:10:09;100483.81;;;22.22;45.92
57791;BME280;43621;51.798;21.588;2023-04-28T06:14:11;100486.20;;;26.53;39.79
57791;BME280;43621;51.798;21.588;2023-04-28T06:18:12;100482.14;;;29.90;34.31
57791;BME280;43621;51.798;21.588;2023-04-28T06:22:13;100489.10;;;33.16;30.89
57791;BME280;43621;51.798;21.588;2023-04-28T06:26:14;100490.86;;;36.36;26.85
57791;BME280;43621;51.798;21.588;2023-04-28T06:30:21;100492.91;;;38.77;22.96
57791;BME280;43621;51.798;21.588;2023-04-28T06:34:25;100496.33;;;40.62;20.21
57791;BME280;43621;51.798;21.588;2023-04-28T06:38:30;100497.73;;;42.16;18.46
57791;BME280;43621;51.798;21.588;2023-04-28T06:42:31;100502.44;;;43.26;15.85
57791;BME280;43621;51.798;21.588;2023-04-28T06:46:33;100502.04;;;43.28;13.04
57791;BME280;43621;51.798;21.588;2023-04-28T06:50:35;100503.25;;;42.89;12.76
57791;BME280;43621;51.798;21.588;2023-04-28T06:54:36;100502.23;;;42.92;11.23
57791;BME280;43621;51.798;21.588;2023-04-28T06:58:38;100501.90;;;42.68;10.61
57791;BME280;43621;51.798;21.588;2023-04-28T07:02:39;100497.88;;;42.34;10.64
57791;BME280;43621;51.798;21.588;2023-04-28T07:06:40;100497.46;;;43.45;11.09
57791;BME280;43621;51.798;21.588;2023-04-28T07:10:41;100497.80;;;44.53;9.98
57791;BME280;43621;51.798;21.588;2023-04-28T07:14:43;100495.28;;;45.39;9.58
57791;BME280;43621;51.798;21.588;2023-04-28T07:18:44;100503.72;;;46.34;9.39
57791;BME280;43621;51.798;21.588;2023-04-28T07:22:45;100498.29;;;46.86;7.72
57791;BME280;43621;51.798;21.588;2023-04-28T07:26:46;100496.67;;;46.79;7.34
57791;BME280;43621;51.798;21.588;2023-04-28T07:30:48;100495.50;;;47.62;7.04
57791;BME280;43621;51.798;21.588;2023-04-28T07:34:49;100490.93;;;46.60;7.48
57791;BME280;43621;51.798;21.588;2023-04-28T07:38:50;100490.83;;;47.53;7.17
57791;BME280;43621;51.798;21.588;2023-04-28T07:42:51;100483.80;;;45.37;7.01
57791;BME280;43621;51.798;21.588;2023-04-28T07:46:52;100477.33;;;44.44;7.33
57791;BME280;43621;51.798;21.588;2023-04-28T07:50:53;100477.88;;;44.47;6.73
57791;BME280;43621;51.798;21.588;2023-04-28T07:54:55;100471.71;;;45.06;7.02
57791;BME280;43621;51.798;21.588;2023-04-28T07:58:56;100469.95;;;46.41;6.13
57791;BME280;43621;51.798;21.588;2023-04-28T08:02:57;100473.13;;;46.35;6.14
57791;BME280;43621;51.798;21.588;2023-04-28T08:06:58;100472.88;;;47.14;6.12
57791;BME280;43621;51.798;21.588;2023-04-28T08:11:01;100472.73;;;48.25;5.74
57791;BME280;43621;51.798;21.588;2023-04-28T08:15:02;100470.39;;;48.29;4.95
57791;BME280;43621;51.798;21.588;2023-04-28T08:19:03;100462.98;;;48.28;4.99
57791;BME280;43621;51.798;21.588;2023-04-28T08:23:04;100459.26;;;48.52;4.61
57791;BME280;43621;51.798;21.588;2023-04-28T08:27:05;100461.77;;;45.13;4.87
57791;BME280;43621;51.798;21.588;2023-04-28T08:31:06;100455.70;;;39.87;6.68
57791;BME280;43621;51.798;21.588;2023-04-28T08:35:08;100456.97;;;35.08;8.19
57791;BME280;43621;51.798;21.588;2023-04-28T08:39:10;100452.98;;;35.67;8.62
57791;BME280;43621;51.798;21.588;2023-04-28T08:43:11;100448.84;;;34.68;8.69
57791;BME280;43621;51.798;21.588;2023-04-28T08:47:15;100450.61;;;32.12;9.70
57791;BME280;43621;51.798;21.588;2023-04-28T08:51:29;100446.07;;;31.09;10.35
57791;BME280;43621;51.798;21.588;2023-04-28T08:55:34;100447.44;;;28.65;11.07
57791;BME280;43621;51.798;21.588;2023-04-28T08:59:39;100441.72;;;26.42;11.68
57791;BME280;43621;51.798;21.588;2023-04-28T09:03:41;100437.77;;;24.78;12.51
57791;BME280;43621;51.798;21.588;2023-04-28T09:07:44;100439.48;;;23.88;13.21
57791;BME280;43621;51.798;21.588;2023-04-28T09:11:50;100432.09;;;24.45;13.50
57791;BME280;43621;51.798;21.588;2023-04-28T09:15:59;100425.17;;;28.73;13.56
57791;BME280;43621;51.798;21.588;2023-04-28T09:20:00;100427.88;;;35.53;11.08
57791;BME280;43621;51.798;21.588;2023-04-28T09:24:01;100426.09;;;39.67;8.97
57791;BME280;43621;51.798;21.588;2023-04-28T09:28:21;100425.48;;;39.53;7.62
57791;BME280;43621;51.798;21.588;2023-04-28T09:32:23;100420.63;;;41.02;7.57
57791;BME280;43621;51.798;21.588;2023-04-28T09:36:26;100417.98;;;44.60;7.20
57791;BME280;43621;51.798;21.588;2023-04-28T09:40:29;100420.89;;;46.40;5.41
57791;BME280;43621;51.798;21.588;2023-04-28T09:44:30;100414.24;;;46.34;4.85
57791;BME280;43621;51.798;21.588;2023-04-28T09:48:36;100418.58;;;45.81;4.86
57791;BME280;43621;51.798;21.588;2023-04-28T09:52:45;100406.31;;;45.72;5.04
57791;BME280;43621;51.798;21.588;2023-04-28T09:56:46;100405.81;;;43.61;5.17
57791;BME280;43621;51.798;21.588;2023-04-28T10:00:51;100399.17;;;39.34;6.13
57791;BME280;43621;51.798;21.588;2023-04-28T10:04:53;100390.51;;;35.44;7.55
57791;BME280;43621;51.798;21.588;2023-04-28T10:08:55;100392.77;;;31.88;8.87
57791;BME280;43621;51.798;21.588;2023-04-28T10:12:57;100387.40;;;28.68;10.06
57791;BME280;43621;51.798;21.588;2023-04-28T10:16:59;100380.35;;;26.89;11.07
57791;BME280;43621;51.798;21.588;2023-04-28T10:21:03;100378.12;;;25.52;11.91
57791;BME280;43621;51.798;21.588;2023-04-28T10:29:12;100374.38;;;23.36;13.32
57791;BME280;43621;51.798;21.588;2023-04-28T10:37:15;100365.16;;;21.69;14.82
57791;BME280;43621;51.798;21.588;2023-04-28T10:41:36;100362.77;;;21.61;15.20
57791;BME280;43621;51.798;21.588;2023-04-28T11:02:36;100335.52;;;30.79;13.34
57791;BME280;43621;51.798;21.588;2023-04-28T11:06:40;100330.95;;;30.70;12.36
57791;BME280;43621;51.798;21.588;2023-04-28T11:11:18;100328.30;;;29.52;12.19
57791;BME280;43621;51.798;21.588;2023-04-28T11:15:19;100329.47;;;28.44;12.48
57791;BME280;43621;51.798;21.588;2023-04-28T11:19:22;100338.92;;;27.16;12.76
57791;BME280;43621;51.798;21.588;2023-04-28T11:23:27;100330.62;;;25.97;13.05
57791;BME280;43621;51.798;21.588;2023-04-28T11:27:30;100328.36;;;25.13;13.98
57791;BME280;43621;51.798;21.588;2023-04-28T11:31:32;100327.82;;;24.50;14.21
57791;BME280;43621;51.798;21.588;2023-04-28T11:35:40;100326.48;;;23.56;14.96
57791;BME280;43621;51.798;21.588;2023-04-28T11:39:42;100320.89;;;22.74;15.67
57791;BME280;43621;51.798;21.588;2023-04-28T11:43:43;100326.32;;;22.60;15.88
57791;BME280;43621;51.798;21.588;2023-04-28T11:47:44;100320.02;;;22.54;15.78
57791;BME280;43621;51.798;21.588;2023-04-28T11:51:45;100314.17;;;22.15;15.92
57791;BME280;43621;51.798;21.588;2023-04-28T11:55:49;100306.80;;;21.86;16.16
57791;BME280;43621;51.798;21.588;2023-04-28T12:00:14;100300.62;;;21.80;16.37
57791;BME280;43621;51.798;21.588;2023-04-28T12:04:36;100302.29;;;21.76;16.69
57791;BME280;43621;51.798;21.588;2023-04-28T12:08:38;100300.45;;;21.83;16.80
57791;BME280;43621;51.798;21.588;2023-04-28T12:12:39;100298.73;;;21.79;16.66
57791;BME280;43621;51.798;21.588;2023-04-28T12:16:42;100298.15;;;21.94;16.68
57791;BME280;43621;51.798;21.588;2023-04-28T12:20:44;100292.80;;;22.17;16.73
57791;BME280;43621;51.798;21.588;2023-04-28T12:24:45;100285.33;;;22.13;16.81
57791;BME280;43621;51.798;21.588;2023-04-28T12:29:01;100274.30;;;22.16;16.76
57791;BME280;43621;51.798;21.588;2023-04-28T12:33:03;100271.34;;;22.09;16.87
57791;BME280;43621;51.798;21.588;2023-04-28T12:37:05;100266.61;;;21.98;16.93
57791;BME280;43621;51.798;21.588;2023-04-28T12:41:06;100261.08;;;21.61;16.91
57791;BME280;43621;51.798;21.588;2023-04-28T12:45:07;100251.61;;;21.75;17.16
57791;BME280;43621;51.798;21.588;2023-04-28T12:49:09;100251.64;;;22.11;17.21
57791;BME280;43621;51.798;21.588;2023-04-28T12:53:11;100244.65;;;22.24;17.15
57791;BME280;43621;51.798;21.588;2023-04-28T12:57:13;100238.79;;;22.19;17.05
57791;BME280;43621;51.798;21.588;2023-04-28T13:01:14;100238.16;;;21.72;17.20
57791;BME280;43621;51.798;21.588;2023-04-28T13:05:15;100233.71;;;21.22;17.53
57791;BME280;43621;51.798;21.588;2023-04-28T13:09:16;100229.52;;;20.33;17.87
57791;BME280;43621;51.798;21.588;2023-04-28T13:13:17;100229.69;;;19.90;18.20
57791;BME280;43621;51.798;21.588;2023-04-28T13:17:19;100224.45;;;19.58;18.46
57791;BME280;43621;51.798;21.588;2023-04-28T13:21:20;100218.87;;;19.34;18.74
57791;BME280;43621;51.798;21.588;2023-04-28T13:25:21;100219.48;;;19.35;18.94
57791;BME280;43621;51.798;21.588;2023-04-28T13:29:22;100216.27;;;19.40;19.15
57791;BME280;43621;51.798;21.588;2023-04-28T13:33:23;100220.98;;;19.41;19.27
57791;BME280;43621;51.798;21.588;2023-04-28T13:37:30;100215.77;;;19.31;19.30
57791;BME280;43621;51.798;21.588;2023-04-28T13:41:32;100219.02;;;19.38;19.32
57791;BME280;43621;51.798;21.588;2023-04-28T13:45:33;100215.39;;;19.47;19.50
57791;BME280;43621;51.798;21.588;2023-04-28T13:49:35;100206.36;;;19.59;19.60
57791;BME280;43621;51.798;21.588;2023-04-28T13:53:37;100197.77;;;19.60;19.67
57791;BME280;43621;51.798;21.588;2023-04-28T13:57:38;100193.11;;;19.53;19.71
57791;BME280;43621;51.798;21.588;2023-04-28T14:01:39;100188.11;;;19.40;19.81
57791;BME280;43621;51.798;21.588;2023-04-28T14:05:40;100188.64;;;19.34;20.04
57791;BME280;43621;51.798;21.588;2023-04-28T14:09:42;100181.81;;;19.25;20.02
57791;BME280;43621;51.798;21.588;2023-04-28T14:13:43;100176.92;;;19.11;19.93
57791;BME280;43621;51.798;21.588;2023-04-28T14:17:44;100174.70;;;18.96;20.25
57791;BME280;43621;51.798;21.588;2023-04-28T14:21:45;100172.63;;;18.88;20.44
57791;BME280;43621;51.798;21.588;2023-04-28T14:25:47;100172.80;;;19.02;20.56
57791;BME280;43621;51.798;21.588;2023-04-28T14:29:48;100169.02;;;19.17;20.50
57791;BME280;43621;51.798;21.588;2023-04-28T14:33:49;100162.33;;;19.04;20.69
57791;BME280;43621;51.798;21.588;2023-04-28T14:37:51;100160.12;;;18.74;20.67
57791;BME280;43621;51.798;21.588;2023-04-28T14:41:53;100163.78;;;18.49;20.96
57791;BME280;43621;51.798;21.588;2023-04-28T14:45:54;100166.17;;;18.28;21.04
57791;BME280;43621;51.798;21.588;2023-04-28T14:49:55;100162.84;;;18.08;21.19
57791;BME280;43621;51.798;21.588;2023-04-28T14:53:57;100164.68;;;17.93;21.34
57791;BME280;43621;51.798;21.588;2023-04-28T14:57:59;100165.25;;;17.81;21.38
57791;BME280;43621;51.798;21.588;2023-04-28T15:02:00;100151.38;;;17.40;21.90
57791;BME280;43621;51.798;21.588;2023-04-28T15:06:01;100149.48;;;17.08;21.92
57791;BME280;43621;51.798;21.588;2023-04-28T15:10:03;100148.02;;;16.80;22.26
57791;BME280;43621;51.798;21.588;2023-04-28T15:14:04;100139.34;;;16.63;22.70
57791;BME280;43621;51.798;21.588;2023-04-28T15:18:06;100136.20;;;16.68;22.96
57791;BME280;43621;51.798;21.588;2023-04-28T15:22:07;100137.80;;;16.55;23.00
57791;BME280;43621;51.798;21.588;2023-04-28T15:26:08;100134.52;;;16.42;23.07
57791;BME280;43621;51.798;21.588;2023-04-28T15:30:11;100131.72;;;16.26;23.17
57791;BME280;43621;51.798;21.588;2023-04-28T15:34:12;100124.46;;;16.19;23.28
57791;BME280;43621;51.798;21.588;2023-04-28T15:38:13;100116.91;;;16.11;23.35
57791;BME280;43621;51.798;21.588;2023-04-28T15:42:14;100118.70;;;15.99;23.67
57791;BME280;43621;51.798;21.588;2023-04-28T15:46:16;100114.23;;;15.82;23.86
57791;BME280;43621;51.798;21.588;2023-04-28T15:50:17;100114.36;;;15.55;23.92
57791;BME280;43621;51.798;21.588;2023-04-28T15:54:19;100113.89;;;15.34;24.22
57791;BME280;43621;51.798;21.588;2023-04-28T15:58:20;100108.96;;;15.19;24.33
57791;BME280;43621;51.798;21.588;2023-04-28T16:02:22;100107.63;;;15.10;24.54
57791;BME280;43621;51.798;21.588;2023-04-28T16:06:23;100104.34;;;14.95;24.69
57791;BME280;43621;51.798;21.588;2023-04-28T16:10:25;100105.39;;;14.77;25.10
57791;BME280;43621;51.798;21.588;2023-04-28T16:14:26;100101.62;;;14.60;25.31
57791;BME280;43621;51.798;21.588;2023-04-28T16:18:27;100101.34;;;14.42;25.70
57791;BME280;43621;51.798;21.588;2023-04-28T16:22:30;100103.17;;;14.26;26.24
57791;BME280;43621;51.798;21.588;2023-04-28T16:26:31;100105.23;;;14.12;26.54
57791;BME280;43621;51.798;21.588;2023-04-28T16:30:32;100101.27;;;13.96;27.03
57791;BME280;43621;51.798;21.588;2023-04-28T16:34:34;100100.09;;;13.80;27.08
57791;BME280;43621;51.798;21.588;2023-04-28T16:38:35;100095.98;;;13.69;27.19
57791;BME280;43621;51.798;21.588;2023-04-28T16:42:36;100095.59;;;13.61;27.39
57791;BME280;43621;51.798;21.588;2023-04-28T16:46:38;100090.16;;;13.54;27.80
57791;BME280;43621;51.798;21.588;2023-04-28T16:50:39;100094.18;;;13.44;28.29
57791;BME280;43621;51.798;21.588;2023-04-28T16:54:40;100090.98;;;13.32;28.57
57791;BME280;43621;51.798;21.588;2023-04-28T16:58:42;100090.82;;;13.22;28.51
57791;BME280;43621;51.798;21.588;2023-04-28T17:02:43;100086.48;;;13.11;28.92
57791;BME280;43621;51.798;21.588;2023-04-28T17:06:44;100087.20;;;12.95;29.35
57791;BME280;43621;51.798;21.588;2023-04-28T17:10:45;100094.33;;;12.81;29.49
57791;BME280;43621;51.798;21.588;2023-04-28T17:14:46;100092.66;;;12.66;30.03
57791;BME280;43621;51.798;21.588;2023-04-28T17:18:47;100090.85;;;12.51;30.24
57791;BME280;43621;51.798;21.588;2023-04-28T17:22:48;100087.71;;;12.38;30.66
57791;BME280;43621;51.798;21.588;2023-04-28T17:26:50;100084.02;;;12.24;30.91
57791;BME280;43621;51.798;21.588;2023-04-28T17:30:51;100080.35;;;12.13;31.18
57791;BME280;43621;51.798;21.588;2023-04-28T17:34:53;100074.52;;;12.05;31.56
57791;BME280;43621;51.798;21.588;2023-04-28T17:38:54;100073.23;;;11.98;31.90
57791;BME280;43621;51.798;21.588;2023-04-28T17:42:56;100073.57;;;11.93;32.22
57791;BME280;43621;51.798;21.588;2023-04-28T17:46:58;100074.98;;;11.87;32.55
57791;BME280;43621;51.798;21.588;2023-04-28T17:51:00;100073.81;;;11.79;32.93
57791;BME280;43621;51.798;21.588;2023-04-28T17:55:01;100068.48;;;11.68;33.16
57791;BME280;43621;51.798;21.588;2023-04-28T17:59:03;100066.91;;;11.57;33.41
57791;BME280;43621;51.798;21.588;2023-04-28T18:03:05;100066.04;;;11.46;33.68
57791;BME280;43621;51.798;21.588;2023-04-28T18:07:06;100064.81;;;11.33;34.03
57791;BME280;43621;51.798;21.588;2023-04-28T18:11:08;100065.54;;;11.20;34.32
57791;BME280;43621;51.798;21.588;2023-04-28T18:15:10;100069.77;;;11.08;34.47
57791;BME280;43621;51.798;21.588;2023-04-28T18:19:11;100069.38;;;10.95;34.81
57791;BME280;43621;51.798;21.588;2023-04-28T18:23:13;100072.90;;;10.78;35.32
57791;BME280;43621;51.798;21.588;2023-04-28T18:27:14;100071.09;;;10.57;35.69
57791;BME280;43621;51.798;21.588;2023-04-28T18:31:15;100073.31;;;10.42;36.29
57791;BME280;43621;51.798;21.588;2023-04-28T18:35:17;100073.21;;;10.25;36.76
57791;BME280;43621;51.798;21.588;2023-04-28T18:39:18;100074.59;;;10.08;36.63
57791;BME280;43621;51.798;21.588;2023-04-28T18:43:19;100074.86;;;9.95;37.10
57791;BME280;43621;51.798;21.588;2023-04-28T18:47:21;100072.48;;;9.82;37.70
57791;BME280;43621;51.798;21.588;2023-04-28T18:51:22;100073.48;;;9.69;38.50
57791;BME280;43621;51.798;21.588;2023-04-28T18:55:23;100073.23;;;9.55;38.48
57791;BME280;43621;51.798;21.588;2023-04-28T18:59:24;100071.77;;;9.42;38.58
57791;BME280;43621;51.798;21.588;2023-04-28T19:03:26;100068.30;;;9.32;39.85
57791;BME280;43621;51.798;21.588;2023-04-28T19:07:27;100067.40;;;9.19;40.12
57791;BME280;43621;51.798;21.588;2023-04-28T19:11:29;100067.98;;;9.11;39.45
57791;BME280;43621;51.798;21.588;2023-04-28T19:15:30;100065.30;;;9.05;39.97
57791;BME280;43621;51.798;21.588;2023-04-28T19:19:32;100063.13;;;9.00;40.03
57791;BME280;43621;51.798;21.588;2023-04-28T19:23:34;100067.07;;;8.92;39.92
57791;BME280;43621;51.798;21.588;2023-04-28T19:27:37;100068.27;;;8.86;40.47
57791;BME280;43621;51.798;21.588;2023-04-28T19:31:39;100062.79;;;8.79;41.12
57791;BME280;43621;51.798;21.588;2023-04-28T19:35:40;100062.88;;;8.74;40.85
57791;BME280;43621;51.798;21.588;2023-04-28T19:39:41;100058.38;;;8.69;40.85
57791;BME280;43621;51.798;21.588;2023-04-28T19:43:44;100056.61;;;8.65;41.13
57791;BME280;43621;51.798;21.588;2023-04-28T19:47:46;100053.63;;;8.61;41.02
57791;BME280;43621;51.798;21.588;2023-04-28T19:51:47;100054.69;;;8.57;41.45
57791;BME280;43621;51.798;21.588;2023-04-28T19:55:48;100056.02;;;8.53;41.49
57791;BME280;43621;51.798;21.588;2023-04-28T19:59:50;100054.83;;;8.49;41.33
57791;BME280;43621;51.798;21.588;2023-04-28T20:03:51;100055.38;;;8.46;41.25
57791;BME280;43621;51.798;21.588;2023-04-28T20:07:52;100055.63;;;8.43;41.51
57791;BME280;43621;51.798;21.588;2023-04-28T20:11:54;100058.04;;;8.39;41.36
57791;BME280;43621;51.798;21.588;2023-04-28T20:15:57;100056.91;;;8.36;41.36
57791;BME280;43621;51.798;21.588;2023-04-28T20:19:58;100060.08;;;8.33;41.64
57791;BME280;43621;51.798;21.588;2023-04-28T20:23:59;100059.20;;;8.31;42.08
57791;BME280;43621;51.798;21.588;2023-04-28T20:28:00;100065.56;;;8.27;42.01
57791;BME280;43621;51.798;21.588;2023-04-28T20:32:02;100066.00;;;8.24;42.12
57791;BME280;43621;51.798;21.588;2023-04-28T20:36:04;100067.61;;;8.22;41.88
57791;BME280;43621;51.798;21.588;2023-04-28T20:40:06;100068.43;;;8.20;42.15
57791;BME280;43621;51.798;21.588;2023-04-28T20:44:07;100064.71;;;8.16;42.28
57791;BME280;43621;51.798;21.588;2023-04-28T20:48:08;100062.70;;;8.14;42.54
57791;BME280;43621;51.798;21.588;2023-04-28T20:52:10;100060.55;;;8.08;42.55
57791;BME280;43621;51.798;21.588;2023-04-28T20:56:11;100058.02;;;8.02;43.32
57791;BME280;43621;51.798;21.588;2023-04-28T21:00:12;100055.95;;;7.96;43.31
57791;BME280;43621;51.798;21.588;2023-04-28T21:04:14;100059.33;;;7.88;43.59
57791;BME280;43621;51.798;21.588;2023-04-28T21:08:15;100055.72;;;7.79;44.04
57791;BME280;43621;51.798;21.588;2023-04-28T21:12:16;100057.35;;;7.73;43.78
57791;BME280;43621;51.798;21.588;2023-04-28T21:16:18;100057.80;;;7.67;43.98
57791;BME280;43621;51.798;21.588;2023-04-28T21:20:20;100058.83;;;7.61;44.36
57791;BME280;43621;51.798;21.588;2023-04-28T21:24:22;100055.40;;;7.54;44.58
57791;BME280;43621;51.798;21.588;2023-04-28T21:28:23;100051.23;;;7.50;44.61